Sarasota, FL

9:18 AM EDT on September 22, 2014 (GMT -0400)
Sarasota-bradenton | Change Station
CLOSE
Current Station
Airport
Location: Sarasota,
Elevation: 30 ft
Nearby Weather Stations
Active Advisory: Hydrologic Statement

Elev 30 ft 27.40 °N, 82.56 °W | Updated 25 minutes ago

Scattered Clouds
Scattered Clouds
76 °F
Feels Like 76 °F
N
5
Wind Variable Wind from ESE

Today
High -- | Low -- °F
--% Chance of Precip.
Yesterday
High -- | Low -- °F
Precip. -- in
7:18 AM 7:26 PM
Waning Crescent, 3% visible
Pressure 30.02 in
Visibility 10.0 miles
Clouds Few 8000 ft
Scattered Clouds 10000 ft
Dew Point 75 °F
Humidity 97%
Rainfall 0.12 in
Snow Depth Not available.
UV 1 out of 12
Pollen 2.10 out of 12
Air Quality Not available.
Flu Activity Not available.
METAR KSRQ 221253Z 11004KT 10SM FEW080 SCT100 24/24 A3002 RMK AO2 RAE47 SLP164 P0011 T02440239

More Conditions Fewer Conditions

Pressure 30.02 in
Visibility 10.0 miles
Clouds Few 8000 ft
Scattered Clouds 10000 ft
Dew Point 75 °F
Humidity 97%
Rainfall 0.12 in
Snow Depth Not available.
UV 1 out of 12
Pollen 2.10 out of 12
Air Quality Not available.
Flu Activity Not available.
METAR KSRQ 221253Z 11004KT 10SM FEW080 SCT100 24/24 A3002 RMK AO2 RAE47 SLP164 P0011 T02440239

More Conditions Fewer Conditions

10-Day Weather Forecast

Almanac

Astronomy

Sep. 22, 2014 Rise Set
Actual Time 7:18 AM EDT 7:26 PM EDT
Civil Twilight 6:55 AM EDT 7:49 PM EDT
Nautical Twilight 6:28 AM EDT 8:17 PM EDT
Astronomical Twilight 6:00 AM EDT 8:44 PM EDT
Moon 5:52 AM EDT 6:30 PM EDT
Length of Visible Light 12h 54m
Length of Day
12h 07m
Tomorrow will be 1m 37s shorter.
Waning Crescent, 3% of the Moon is Illuminated
Today
Waning Crescent
Sep 24
New
Oct 1
First Quarter
Oct 8
Full
Oct 15
Last Quarter

Today's Extremes

State Highs State Lows

Community

WunderPhotos

Upload Photos

1,755,429 photos uploaded!

Nearby

Snow Depth

Station Depth Elevation
No new snow has been reported.

Earthquake Activity

City Distance Mag. Time & Date
No recent earthquake activity has been reported nearby.
Minimum magnitude displayed is 2.5.

Coastal Water Temperatures

Place Temperature
Port Manatee, FL 84.0 °F
St Petersburg, FL 84.9 °F
Old Port Tampa, FL 82.9 °F

Nearby Weather Stations